sensor_id;sensor_type;location;lat;lon;timestamp;pressure;altitude;pressure_sealevel;temperature;humidity
48089;BME280;33867;50.314;7.802;2023-04-03T00:06:46;101557.47;;;2.38;nan
48089;BME280;33867;50.314;7.802;2023-04-03T00:10:07;101553.97;;;2.58;nan
48089;BME280;33867;50.314;7.802;2023-04-03T00:13:29;101547.63;;;2.40;nan
48089;BME280;33867;50.314;7.802;2023-04-03T00:16:49;101553.22;;;2.54;nan
48089;BME280;33867;50.314;7.802;2023-04-03T00:20:08;101553.22;;;2.54;nan
48089;BME280;33867;50.314;7.802;2023-04-03T00:23:27;101544.19;;;2.58;nan
48089;BME280;33867;50.314;7.802;2023-04-03T00:26:55;101548.28;;;2.45;nan
48089;BME280;33867;50.314;7.802;2023-04-03T00:30:24;101546.69;;;2.41;nan
48089;BME280;33867;50.314;7.802;2023-04-03T00:33:50;101554.72;;;2.40;nan
48089;BME280;33867;50.314;7.802;2023-04-03T00:37:11;101555.81;;;2.34;nan
48089;BME280;33867;50.314;7.802;2023-04-03T00:40:37;101551.63;;;2.50;nan
48089;BME280;33867;50.314;7.802;2023-04-03T00:43:57;101561.50;;;2.47;nan
48089;BME280;33867;50.314;7.802;2023-04-03T00:47:19;101554.72;;;2.40;nan
48089;BME280;33867;50.314;7.802;2023-04-03T00:50:45;101547.59;;;2.62;nan
48089;BME280;33867;50.314;7.802;2023-04-03T00:54:12;101554.44;;;2.68;nan
48089;BME280;33867;50.314;7.802;2023-04-03T00:57:31;101555.13;;;2.73;nan
48089;BME280;33867;50.314;7.802;2023-04-03T01:01:15;101558.38;;;2.79;nan
48089;BME280;33867;50.314;7.802;2023-04-03T01:04:46;101544.03;;;2.83;nan
48089;BME280;33867;50.314;7.802;2023-04-03T01:08:12;101544.94;;;2.82;nan
48089;BME280;33867;50.314;7.802;2023-04-03T01:11:34;101541.84;;;2.93;nan
48089;BME280;33867;50.314;7.802;2023-04-03T01:15:00;101541.44;;;2.82;nan
48089;BME280;33867;50.314;7.802;2023-04-03T01:18:59;101540.56;;;2.81;nan
48089;BME280;33867;50.314;7.802;2023-04-03T01:22:30;101537.38;;;2.73;nan
48089;BME280;33867;50.314;7.802;2023-04-03T01:25:58;101541.00;;;2.71;nan
48089;BME280;33867;50.314;7.802;2023-04-03T01:29:17;101538.34;;;2.71;nan
48089;BME280;33867;50.314;7.802;2023-04-03T01:32:37;101539.97;;;2.75;nan
48089;BME280;33867;50.314;7.802;2023-04-03T01:35:57;101537.84;;;2.83;nan
48089;BME280;33867;50.314;7.802;2023-04-03T01:39:17;101538.59;;;2.86;nan
48089;BME280;33867;50.314;7.802;2023-04-03T01:42:36;101532.53;;;3.03;nan
48089;BME280;33867;50.314;7.802;2023-04-03T01:45:57;101533.13;;;2.89;nan
48089;BME280;33867;50.314;7.802;2023-04-03T01:49:19;101540.66;;;3.00;nan
48089;BME280;33867;50.314;7.802;2023-04-03T01:52:38;101542.63;;;2.95;nan
48089;BME280;33867;50.314;7.802;2023-04-03T01:55:58;101535.06;;;3.06;nan
48089;BME280;33867;50.314;7.802;2023-04-03T01:59:18;101535.13;;;3.05;nan
48089;BME280;33867;50.314;7.802;2023-04-03T02:02:38;101532.31;;;3.08;nan
48089;BME280;33867;50.314;7.802;2023-04-03T02:05:59;101530.66;;;3.05;nan
48089;BME280;33867;50.314;7.802;2023-04-03T02:09:19;101527.22;;;3.03;nan
48089;BME280;33867;50.314;7.802;2023-04-03T02:12:40;101529.19;;;2.78;nan
48089;BME280;33867;50.314;7.802;2023-04-03T02:16:06;101524.09;;;2.73;nan
48089;BME280;33867;50.314;7.802;2023-04-03T02:19:25;101528.34;;;2.77;nan
48089;BME280;33867;50.314;7.802;2023-04-03T02:22:44;101526.94;;;2.89;nan
48089;BME280;33867;50.314;7.802;2023-04-03T02:26:11;101522.28;;;2.94;nan
48089;BME280;33867;50.314;7.802;2023-04-03T02:29:30;101524.00;;;2.95;nan
48089;BME280;33867;50.314;7.802;2023-04-03T02:32:49;101529.75;;;2.86;nan
48089;BME280;33867;50.314;7.802;2023-04-03T02:36:11;101523.44;;;2.88;nan
48089;BME280;33867;50.314;7.802;2023-04-03T02:39:40;101522.69;;;2.85;nan
48089;BME280;33867;50.314;7.802;2023-04-03T02:43:03;101525.75;;;2.76;nan
48089;BME280;33867;50.314;7.802;2023-04-03T02:46:23;101524.34;;;2.67;nan
48089;BME280;33867;50.314;7.802;2023-04-03T02:49:55;101533.91;;;2.71;nan
48089;BME280;33867;50.314;7.802;2023-04-03T02:53:14;101530.44;;;2.69;nan
48089;BME280;33867;50.314;7.802;2023-04-03T02:56:40;101533.97;;;2.70;nan
48089;BME280;33867;50.314;7.802;2023-04-03T03:00:07;101537.66;;;2.45;nan
48089;BME280;33867;50.314;7.802;2023-04-03T03:03:27;101529.19;;;2.35;nan
48089;BME280;33867;50.314;7.802;2023-04-03T03:06:49;101538.78;;;2.40;nan
48089;BME280;33867;50.314;7.802;2023-04-03T03:10:18;101541.38;;;2.41;nan
48089;BME280;33867;50.314;7.802;2023-04-03T03:13:44;101539.50;;;2.43;nan
48089;BME280;33867;50.314;7.802;2023-04-03T03:17:04;101541.50;;;2.38;nan
48089;BME280;33867;50.314;7.802;2023-04-03T03:20:23;101551.78;;;2.25;nan
48089;BME280;33867;50.314;7.802;2023-04-03T03:23:44;101555.66;;;2.39;nan
48089;BME280;33867;50.314;7.802;2023-04-03T03:27:11;101549.06;;;2.27;nan
48089;BME280;33867;50.314;7.802;2023-04-03T03:30:37;101556.50;;;2.17;nan
48089;BME280;33867;50.314;7.802;2023-04-03T03:33:59;101557.06;;;2.03;nan
48089;BME280;33867;50.314;7.802;2023-04-03T03:37:22;101552.56;;;2.05;nan
48089;BME280;33867;50.314;7.802;2023-04-03T03:40:48;101560.84;;;2.20;nan
48089;BME280;33867;50.314;7.802;2023-04-03T03:44:23;101556.81;;;2.10;nan
48089;BME280;33867;50.314;7.802;2023-04-03T03:47:51;101554.78;;;2.16;nan
48089;BME280;33867;50.314;7.802;2023-04-03T03:51:20;101553.78;;;2.19;nan
48089;BME280;33867;50.314;7.802;2023-04-03T03:54:40;101557.94;;;2.04;nan
48089;BME280;33867;50.314;7.802;2023-04-03T03:58:10;101561.56;;;2.01;nan
48089;BME280;33867;50.314;7.802;2023-04-03T04:01:31;101562.47;;;1.79;nan
48089;BME280;33867;50.314;7.802;2023-04-03T04:04:59;101556.03;;;1.84;nan
48089;BME280;33867;50.314;7.802;2023-04-03T04:08:19;101560.66;;;1.79;nan
48089;BME280;33867;50.314;7.802;2023-04-03T04:11:39;101559.09;;;1.50;nan
48089;BME280;33867;50.314;7.802;2023-04-03T04:15:06;101561.00;;;1.70;nan
48089;BME280;33867;50.314;7.802;2023-04-03T04:18:26;101561.00;;;1.46;nan
48089;BME280;33867;50.314;7.802;2023-04-03T04:21:50;101563.28;;;1.32;nan
48089;BME280;33867;50.314;7.802;2023-04-03T04:25:14;101562.50;;;1.29;nan
48089;BME280;33867;50.314;7.802;2023-04-03T04:28:39;101562.75;;;1.23;nan
48089;BME280;33867;50.314;7.802;2023-04-03T04:32:00;101560.25;;;1.18;nan
48089;BME280;33867;50.314;7.802;2023-04-03T04:35:23;101572.69;;;0.91;nan
48089;BME280;33867;50.314;7.802;2023-04-03T04:38:45;101567.50;;;0.88;nan
48089;BME280;33867;50.314;7.802;2023-04-03T04:42:05;101574.19;;;0.73;nan
48089;BME280;33867;50.314;7.802;2023-04-03T04:45:26;101576.19;;;0.92;nan
48089;BME280;33867;50.314;7.802;2023-04-03T04:48:47;101575.81;;;0.77;nan
48089;BME280;33867;50.314;7.802;2023-04-03T04:52:09;101581.88;;;0.81;nan
48089;BME280;33867;50.314;7.802;2023-04-03T04:55:33;101582.53;;;0.87;nan
48089;BME280;33867;50.314;7.802;2023-04-03T04:59:01;101586.63;;;0.71;nan
48089;BME280;33867;50.314;7.802;2023-04-03T05:02:38;101590.09;;;0.73;nan
48089;BME280;33867;50.314;7.802;2023-04-03T05:06:00;101597.13;;;0.74;nan
48089;BME280;33867;50.314;7.802;2023-04-03T05:09:24;101603.63;;;0.64;nan
48089;BME280;33867;50.314;7.802;2023-04-03T05:12:51;101597.22;;;0.71;nan
48089;BME280;33867;50.314;7.802;2023-04-03T05:16:23;101611.06;;;0.53;nan
48089;BME280;33867;50.314;7.802;2023-04-03T05:19:49;101611.97;;;0.52;nan
48089;BME280;33867;50.314;7.802;2023-04-03T05:23:28;101608.25;;;0.57;nan
48089;BME280;33867;50.314;7.802;2023-04-03T05:27:06;101616.31;;;0.54;nan
48089;BME280;33867;50.314;7.802;2023-04-03T05:30:30;101610.84;;;0.59;nan
48089;BME280;33867;50.314;7.802;2023-04-03T05:33:52;101625.38;;;0.75;nan
48089;BME280;33867;50.314;7.802;2023-04-03T05:37:17;101628.94;;;0.74;nan
48089;BME280;33867;50.314;7.802;2023-04-03T05:40:37;101626.72;;;0.61;nan
48089;BME280;33867;50.314;7.802;2023-04-03T05:43:57;101637.13;;;0.67;nan
48089;BME280;33867;50.314;7.802;2023-04-03T05:47:18;101647.25;;;0.54;nan
48089;BME280;33867;50.314;7.802;2023-04-03T05:50:55;101641.56;;;0.66;nan
48089;BME280;33867;50.314;7.802;2023-04-03T05:54:20;101646.53;;;0.49;nan
48089;BME280;33867;50.314;7.802;2023-04-03T05:57:47;101643.09;;;0.45;nan
48089;BME280;33867;50.314;7.802;2023-04-03T06:01:11;101650.91;;;0.50;nan
48089;BME280;33867;50.314;7.802;2023-04-03T06:04:43;101653.88;;;0.67;nan
48089;BME280;33867;50.314;7.802;2023-04-03T06:08:06;101656.00;;;0.56;nan
48089;BME280;33867;50.314;7.802;2023-04-03T06:11:32;101668.28;;;0.60;nan
48089;BME280;33867;50.314;7.802;2023-04-03T06:15:08;101672.94;;;0.52;nan
48089;BME280;33867;50.314;7.802;2023-04-03T06:18:43;101670.31;;;0.78;nan
48089;BME280;33867;50.314;7.802;2023-04-03T06:22:13;101681.66;;;0.83;nan
48089;BME280;33867;50.314;7.802;2023-04-03T06:25:40;101680.06;;;1.04;nan
48089;BME280;33867;50.314;7.802;2023-04-03T06:29:00;101683.03;;;1.22;nan
48089;BME280;33867;50.314;7.802;2023-04-03T06:32:21;101688.56;;;1.40;nan
48089;BME280;33867;50.314;7.802;2023-04-03T06:35:40;101695.94;;;4.01;nan
48089;BME280;33867;50.314;7.802;2023-04-03T06:39:00;101672.19;;;7.52;nan
48089;BME280;33867;50.314;7.802;2023-04-03T06:42:20;101668.38;;;9.51;nan
48089;BME280;33867;50.314;7.802;2023-04-03T06:45:58;101672.50;;;10.33;nan
48089;BME280;33867;50.314;7.802;2023-04-03T06:49:42;101680.09;;;10.51;nan
48089;BME280;33867;50.314;7.802;2023-04-03T06:53:06;101682.56;;;8.72;nan
48089;BME280;33867;50.314;7.802;2023-04-03T06:56:48;101677.53;;;10.50;nan
48089;BME280;33867;50.314;7.802;2023-04-03T07:00:33;101687.84;;;9.15;nan
48089;BME280;33867;50.314;7.802;2023-04-03T07:04:38;101690.91;;;9.08;nan
48089;BME280;33867;50.314;7.802;2023-04-03T07:07:59;101691.09;;;10.61;nan
48089;BME280;33867;50.314;7.802;2023-04-03T07:11:29;101687.97;;;12.20;nan
48089;BME280;33867;50.314;7.802;2023-04-03T07:15:14;101685.53;;;13.16;nan
48089;BME280;33867;50.314;7.802;2023-04-03T07:18:55;101693.47;;;13.40;nan
48089;BME280;33867;50.314;7.802;2023-04-03T07:22:15;101679.25;;;15.70;nan
48089;BME280;33867;50.314;7.802;2023-04-03T07:25:37;101691.09;;;13.68;nan
48089;BME280;33867;50.314;7.802;2023-04-03T07:29:12;101702.47;;;13.62;nan
48089;BME280;33867;50.314;7.802;2023-04-03T07:32:39;101696.91;;;14.05;nan
48089;BME280;33867;50.314;7.802;2023-04-03T07:36:02;101708.47;;;12.12;nan
48089;BME280;33867;50.314;7.802;2023-04-03T07:39:25;101705.84;;;8.44;nan
48089;BME280;33867;50.314;7.802;2023-04-03T07:42:44;101712.13;;;6.95;nan
48089;BME280;33867;50.314;7.802;2023-04-03T07:46:12;101709.47;;;5.97;nan
48089;BME280;33867;50.314;7.802;2023-04-03T07:49:31;101727.00;;;5.85;nan
48089;BME280;33867;50.314;7.802;2023-04-03T07:52:51;101727.69;;;5.54;nan
48089;BME280;33867;50.314;7.802;2023-04-03T07:56:13;101714.28;;;5.73;nan
48089;BME280;33867;50.314;7.802;2023-04-03T07:59:32;101713.78;;;5.31;nan
48089;BME280;33867;50.314;7.802;2023-04-03T08:02:51;101715.66;;;5.11;nan
48089;BME280;33867;50.314;7.802;2023-04-03T08:06:13;101724.13;;;5.19;nan
48089;BME280;33867;50.314;7.802;2023-04-03T08:09:33;101720.47;;;5.22;nan
48089;BME280;33867;50.314;7.802;2023-04-03T08:12:59;101716.44;;;4.94;nan
48089;BME280;33867;50.314;7.802;2023-04-03T08:16:26;101719.31;;;5.09;nan
48089;BME280;33867;50.314;7.802;2023-04-03T08:19:48;101714.13;;;5.06;nan
48089;BME280;33867;50.314;7.802;2023-04-03T08:23:08;101722.63;;;5.31;nan
48089;BME280;33867;50.314;7.802;2023-04-03T08:26:27;101722.97;;;4.89;nan
48089;BME280;33867;50.314;7.802;2023-04-03T08:29:46;101721.53;;;5.18;nan
48089;BME280;33867;50.314;7.802;2023-04-03T08:33:06;101719.03;;;5.32;nan
48089;BME280;33867;50.314;7.802;2023-04-03T08:36:27;101715.66;;;4.92;nan
48089;BME280;33867;50.314;7.802;2023-04-03T08:39:46;101709.22;;;4.96;nan
48089;BME280;33867;50.314;7.802;2023-04-03T08:50:40;101721.44;;;5.19;nan
48089;BME280;33867;50.314;7.802;2023-04-03T08:54:20;101722.31;;;5.20;nan
48089;BME280;33867;50.314;7.802;2023-04-03T08:57:44;101727.84;;;5.51;nan
48089;BME280;33867;50.314;7.802;2023-04-03T09:01:24;101715.44;;;5.85;nan
48089;BME280;33867;50.314;7.802;2023-04-03T09:04:44;101726.38;;;5.98;nan
48089;BME280;33867;50.314;7.802;2023-04-03T09:08:28;101719.53;;;5.57;nan
48089;BME280;33867;50.314;7.802;2023-04-03T09:11:53;101722.28;;;5.73;nan
48089;BME280;33867;50.314;7.802;2023-04-03T09:15:21;101721.53;;;6.86;nan
48089;BME280;33867;50.314;7.802;2023-04-03T09:18:45;101718.97;;;6.20;nan
48089;BME280;33867;50.314;7.802;2023-04-03T09:22:20;101724.91;;;6.25;nan
48089;BME280;33867;50.314;7.802;2023-04-03T09:25:43;101730.56;;;5.33;nan
48089;BME280;33867;50.314;7.802;2023-04-03T09:29:06;101722.03;;;5.78;nan
48089;BME280;33867;50.314;7.802;2023-04-03T09:32:35;101729.75;;;5.67;nan
48089;BME280;33867;50.314;7.802;2023-04-03T09:35:55;101721.91;;;5.98;nan
48089;BME280;33867;50.314;7.802;2023-04-03T09:39:22;101709.09;;;6.54;nan
48089;BME280;33867;50.314;7.802;2023-04-03T09:42:42;101696.78;;;7.28;nan
48089;BME280;33867;50.314;7.802;2023-04-03T09:46:31;101725.53;;;6.63;nan
48089;BME280;33867;50.314;7.802;2023-04-03T09:49:51;101717.63;;;6.11;nan
48089;BME280;33867;50.314;7.802;2023-04-03T09:56:51;101716.88;;;6.25;nan
48089;BME280;33867;50.314;7.802;2023-04-03T10:00:25;101713.16;;;7.08;nan
48089;BME280;33867;50.314;7.802;2023-04-03T10:03:45;101693.53;;;7.23;nan
48089;BME280;33867;50.314;7.802;2023-04-03T10:07:26;101713.25;;;6.91;nan
48089;BME280;33867;50.314;7.802;2023-04-03T10:10:47;101707.03;;;6.90;nan
48089;BME280;33867;50.314;7.802;2023-04-03T10:14:16;101699.81;;;7.82;nan
48089;BME280;33867;50.314;7.802;2023-04-03T10:21:24;101684.41;;;9.65;nan
48089;BME280;33867;50.314;7.802;2023-04-03T10:28:46;101702.34;;;8.28;nan
48089;BME280;33867;50.314;7.802;2023-04-03T10:32:29;101704.84;;;8.17;nan
48089;BME280;33867;50.314;7.802;2023-04-03T10:36:22;101695.22;;;9.11;nan
48089;BME280;33867;50.314;7.802;2023-04-03T10:43:58;101688.53;;;9.96;nan
48089;BME280;33867;50.314;7.802;2023-04-03T10:51:13;101689.41;;;11.08;nan
48089;BME280;33867;50.314;7.802;2023-04-03T10:54:43;101693.84;;;10.23;nan
48089;BME280;33867;50.314;7.802;2023-04-03T10:58:06;101684.03;;;11.32;nan
48089;BME280;33867;50.314;7.802;2023-04-03T11:01:36;101678.75;;;12.00;nan
48089;BME280;33867;50.314;7.802;2023-04-03T11:05:02;101662.31;;;12.59;nan
48089;BME280;33867;50.314;7.802;2023-04-03T11:12:04;101654.69;;;14.54;nan
48089;BME280;33867;50.314;7.802;2023-04-03T11:15:24;101651.59;;;13.24;nan
48089;BME280;33867;50.314;7.802;2023-04-03T11:18:58;101666.69;;;12.83;nan
48089;BME280;33867;50.314;7.802;2023-04-03T11:22:31;101662.06;;;12.51;nan
48089;BME280;33867;50.314;7.802;2023-04-03T11:25:53;101646.53;;;13.93;nan
48089;BME280;33867;50.314;7.802;2023-04-03T11:29:18;101634.53;;;15.35;nan
48089;BME280;33867;50.314;7.802;2023-04-03T11:36:41;101641.47;;;12.94;nan
48089;BME280;33867;50.314;7.802;2023-04-03T11:40:28;101627.00;;;14.20;nan
48089;BME280;33867;50.314;7.802;2023-04-03T11:47:45;101630.88;;;14.67;nan
48089;BME280;33867;50.314;7.802;2023-04-03T11:54:44;101639.84;;;13.02;nan
48089;BME280;33867;50.314;7.802;2023-04-03T12:02:35;101618.53;;;14.94;nan
48089;BME280;33867;50.314;7.802;2023-04-03T12:17:20;101605.91;;;14.23;nan
48089;BME280;33867;50.314;7.802;2023-04-03T12:21:13;101607.81;;;14.32;nan
48089;BME280;33867;50.314;7.802;2023-04-03T12:29:09;101604.22;;;12.97;nan
48089;BME280;33867;50.314;7.802;2023-04-03T12:37:03;101595.28;;;12.31;nan
48089;BME280;33867;50.314;7.802;2023-04-03T12:55:00;101584.66;;;12.62;nan
48089;BME280;33867;50.314;7.802;2023-04-03T12:58:26;101578.41;;;13.04;nan
48089;BME280;33867;50.314;7.802;2023-04-03T13:05:19;101566.75;;;13.45;nan
48089;BME280;33867;50.314;7.802;2023-04-03T13:08:48;101560.63;;;16.07;nan
48089;BME280;33867;50.314;7.802;2023-04-03T13:12:14;101558.59;;;15.06;nan
48089;BME280;33867;50.314;7.802;2023-04-03T13:15:47;101561.53;;;13.84;nan
48089;BME280;33867;50.314;7.802;2023-04-03T13:19:17;101551.38;;;14.07;nan
48089;BME280;33867;50.314;7.802;2023-04-03T13:22:39;101542.41;;;14.07;nan
48089;BME280;33867;50.314;7.802;2023-04-03T13:26:04;101550.69;;;13.74;nan
48089;BME280;33867;50.314;7.802;2023-04-03T13:29:29;101550.72;;;15.03;nan
48089;BME280;33867;50.314;7.802;2023-04-03T13:32:49;101533.25;;;15.35;nan
48089;BME280;33867;50.314;7.802;2023-04-03T13:36:32;101539.22;;;13.92;nan
48089;BME280;33867;50.314;7.802;2023-04-03T13:40:01;101541.03;;;12.98;nan
48089;BME280;33867;50.314;7.802;2023-04-03T13:43:26;101537.78;;;13.15;nan
48089;BME280;33867;50.314;7.802;2023-04-03T13:46:45;101534.47;;;13.84;nan
48089;BME280;33867;50.314;7.802;2023-04-03T13:50:23;101545.22;;;14.36;nan
48089;BME280;33867;50.314;7.802;2023-04-03T13:53:54;101546.78;;;12.84;nan
48089;BME280;33867;50.314;7.802;2023-04-03T13:57:15;101537.16;;;14.15;nan
48089;BME280;33867;50.314;7.802;2023-04-03T14:03:59;101527.03;;;14.57;nan
48089;BME280;33867;50.314;7.802;2023-04-03T14:07:19;101527.06;;;12.93;nan
48089;BME280;33867;50.314;7.802;2023-04-03T14:10:40;101518.50;;;12.56;nan
48089;BME280;33867;50.314;7.802;2023-04-03T14:14:12;101522.44;;;12.52;nan
48089;BME280;33867;50.314;7.802;2023-04-03T14:17:32;101511.78;;;13.24;nan
48089;BME280;33867;50.314;7.802;2023-04-03T14:20:51;101515.91;;;13.19;nan
48089;BME280;33867;50.314;7.802;2023-04-03T14:24:10;101510.00;;;12.06;nan
48089;BME280;33867;50.314;7.802;2023-04-03T14:27:35;101504.19;;;12.97;nan
48089;BME280;33867;50.314;7.802;2023-04-03T14:30:55;101510.78;;;11.06;nan
48089;BME280;33867;50.314;7.802;2023-04-03T14:34:15;101501.09;;;12.81;nan
48089;BME280;33867;50.314;7.802;2023-04-03T14:37:34;101495.56;;;13.03;nan
48089;BME280;33867;50.314;7.802;2023-04-03T14:40:55;101495.50;;;12.18;nan
48089;BME280;33867;50.314;7.802;2023-04-03T14:44:16;101496.00;;;13.81;nan
48089;BME280;33867;50.314;7.802;2023-04-03T14:47:51;101489.16;;;15.13;nan
48089;BME280;33867;50.314;7.802;2023-04-03T14:51:12;101494.38;;;14.68;nan
48089;BME280;33867;50.314;7.802;2023-04-03T14:54:31;101482.47;;;15.17;nan
48089;BME280;33867;50.314;7.802;2023-04-03T14:57:51;101492.66;;;12.95;nan
48089;BME280;33867;50.314;7.802;2023-04-03T15:01:12;101488.63;;;13.92;nan
48089;BME280;33867;50.314;7.802;2023-04-03T15:04:32;101493.09;;;14.03;nan
48089;BME280;33867;50.314;7.802;2023-04-03T15:07:55;101479.13;;;13.16;nan
48089;BME280;33867;50.314;7.802;2023-04-03T15:11:16;101484.44;;;12.65;nan
48089;BME280;33867;50.314;7.802;2023-04-03T15:14:42;101480.50;;;13.92;nan
48089;BME280;33867;50.314;7.802;2023-04-03T15:18:01;101479.97;;;13.37;nan
48089;BME280;33867;50.314;7.802;2023-04-03T15:21:20;101486.97;;;12.45;nan
48089;BME280;33867;50.314;7.802;2023-04-03T15:24:40;101474.19;;;12.04;nan
48089;BME280;33867;50.314;7.802;2023-04-03T15:27:59;101476.56;;;11.86;nan
48089;BME280;33867;50.314;7.802;2023-04-03T15:31:18;101479.97;;;11.43;nan
48089;BME280;33867;50.314;7.802;2023-04-03T15:34:38;101486.84;;;12.04;nan
48089;BME280;33867;50.314;7.802;2023-04-03T15:37:57;101479.72;;;11.69;nan
48089;BME280;33867;50.314;7.802;2023-04-03T15:41:16;101468.94;;;11.58;nan
48089;BME280;33867;50.314;7.802;2023-04-03T15:44:36;101481.16;;;11.17;nan
48089;BME280;33867;50.314;7.802;2023-04-03T15:47:55;101483.28;;;10.78;nan
48089;BME280;33867;50.314;7.802;2023-04-03T15:51:15;101477.91;;;10.78;nan
48089;BME280;33867;50.314;7.802;2023-04-03T15:54:34;101487.25;;;10.97;nan
48089;BME280;33867;50.314;7.802;2023-04-03T15:57:54;101484.84;;;10.70;nan
48089;BME280;33867;50.314;7.802;2023-04-03T16:01:13;101483.56;;;10.63;nan
48089;BME280;33867;50.314;7.802;2023-04-03T16:04:33;101474.34;;;10.43;nan
48089;BME280;33867;50.314;7.802;2023-04-03T16:07:53;101483.59;;;9.53;nan
48089;BME280;33867;50.314;7.802;2023-04-03T16:11:14;101490.72;;;9.90;nan
48089;BME280;33867;50.314;7.802;2023-04-03T16:14:33;101482.69;;;9.78;nan
48089;BME280;33867;50.314;7.802;2023-04-03T16:17:53;101483.44;;;9.80;nan
48089;BME280;33867;50.314;7.802;2023-04-03T16:21:13;101488.66;;;10.07;nan
48089;BME280;33867;50.314;7.802;2023-04-03T16:24:33;101493.41;;;9.28;nan
48089;BME280;33867;50.314;7.802;2023-04-03T16:27:54;101479.63;;;9.07;nan
48089;BME280;33867;50.314;7.802;2023-04-03T16:31:13;101480.06;;;9.01;nan
48089;BME280;33867;50.314;7.802;2023-04-03T16:34:32;101482.81;;;8.87;nan
48089;BME280;33867;50.314;7.802;2023-04-03T16:37:51;101483.00;;;8.59;nan
48089;BME280;33867;50.314;7.802;2023-04-03T16:41:11;101488.13;;;8.62;nan
48089;BME280;33867;50.314;7.802;2023-04-03T16:44:30;101478.00;;;8.79;nan
48089;BME280;33867;50.314;7.802;2023-04-03T16:47:49;101485.81;;;8.70;nan
48089;BME280;33867;50.314;7.802;2023-04-03T16:51:09;101486.44;;;8.61;nan
48089;BME280;33867;50.314;7.802;2023-04-03T16:54:28;101482.63;;;8.50;nan
48089;BME280;33867;50.314;7.802;2023-04-03T17:02:42;101496.75;;;8.67;nan
48089;BME280;33867;50.314;7.802;2023-04-03T17:06:01;101502.03;;;8.00;nan
48089;BME280;33867;50.314;7.802;2023-04-03T17:09:21;101497.41;;;7.47;nan
48089;BME280;33867;50.314;7.802;2023-04-03T17:12:42;101501.22;;;7.14;nan
48089;BME280;33867;50.314;7.802;2023-04-03T17:16:03;101502.47;;;7.37;nan
48089;BME280;33867;50.314;7.802;2023-04-03T17:19:24;101504.97;;;7.26;nan
48089;BME280;33867;50.314;7.802;2023-04-03T17:22:43;101507.13;;;7.05;nan
48089;BME280;33867;50.314;7.802;2023-04-03T17:26:08;101510.41;;;7.24;nan
48089;BME280;33867;50.314;7.802;2023-04-03T17:40:33;101515.34;;;7.02;nan
48089;BME280;33867;50.314;7.802;2023-04-03T17:44:04;101512.22;;;6.80;nan
48089;BME280;33867;50.314;7.802;2023-04-03T17:47:27;101513.53;;;6.72;nan
48089;BME280;33867;50.314;7.802;2023-04-03T17:56:05;101510.09;;;6.25;nan
48089;BME280;33867;50.314;7.802;2023-04-03T17:59:25;101511.78;;;5.78;nan
48089;BME280;33867;50.314;7.802;2023-04-03T18:02:45;101533.31;;;5.60;nan
48089;BME280;33867;50.314;7.802;2023-04-03T18:07:19;101524.34;;;5.61;nan
48089;BME280;33867;50.314;7.802;2023-04-03T18:11:13;101535.88;;;5.45;nan
48089;BME280;33867;50.314;7.802;2023-04-03T18:20:02;101534.75;;;5.32;nan
48089;BME280;33867;50.314;7.802;2023-04-03T18:38:17;101547.13;;;4.83;nan
48089;BME280;33867;50.314;7.802;2023-04-03T18:41:36;101556.00;;;4.66;nan
48089;BME280;33867;50.314;7.802;2023-04-03T18:44:58;101548.34;;;4.58;nan
48089;BME280;33867;50.314;7.802;2023-04-03T18:48:18;101561.09;;;4.34;nan
48089;BME280;33867;50.314;7.802;2023-04-03T18:51:39;101565.34;;;4.38;nan
48089;BME280;33867;50.314;7.802;2023-04-03T18:55:19;101558.22;;;4.20;nan
48089;BME280;33867;50.314;7.802;2023-04-03T18:59:09;101568.63;;;4.26;nan
48089;BME280;33867;50.314;7.802;2023-04-03T19:02:30;101576.09;;;4.18;nan
48089;BME280;33867;50.314;7.802;2023-04-03T19:05:50;101578.84;;;3.98;nan
48089;BME280;33867;50.314;7.802;2023-04-03T19:09:19;101575.53;;;3.93;nan
48089;BME280;33867;50.314;7.802;2023-04-03T19:17:33;101584.53;;;3.51;nan
48089;BME280;33867;50.314;7.802;2023-04-03T19:21:20;101590.16;;;3.45;nan
48089;BME280;33867;50.314;7.802;2023-04-03T19:25:15;101580.97;;;3.32;nan
48089;BME280;33867;50.314;7.802;2023-04-03T19:28:45;101595.25;;;3.29;nan
48089;BME280;33867;50.314;7.802;2023-04-03T19:32:09;101592.28;;;3.37;nan
48089;BME280;33867;50.314;7.802;2023-04-03T19:35:30;101603.06;;;3.34;nan
48089;BME280;33867;50.314;7.802;2023-04-03T19:38:52;101600.91;;;3.01;nan
48089;BME280;33867;50.314;7.802;2023-04-03T19:42:15;101597.84;;;2.90;nan
48089;BME280;33867;50.314;7.802;2023-04-03T19:45:34;101604.09;;;2.67;nan
48089;BME280;33867;50.314;7.802;2023-04-03T19:48:54;101605.25;;;2.61;nan
48089;BME280;33867;50.314;7.802;2023-04-03T19:52:14;101613.31;;;2.58;nan
48089;BME280;33867;50.314;7.802;2023-04-03T19:56:06;101609.34;;;2.69;nan
48089;BME280;33867;50.314;7.802;2023-04-03T20:00:14;101612.94;;;2.68;nan
48089;BME280;33867;50.314;7.802;2023-04-03T20:03:50;101606.03;;;2.63;nan
48089;BME280;33867;50.314;7.802;2023-04-03T20:07:10;101608.81;;;2.60;nan
48089;BME280;33867;50.314;7.802;2023-04-03T20:10:30;101610.00;;;2.53;nan
48089;BME280;33867;50.314;7.802;2023-04-03T20:13:50;101610.00;;;2.53;nan
48089;BME280;33867;50.314;7.802;2023-04-03T20:17:10;101612.94;;;2.46;nan
48089;BME280;33867;50.314;7.802;2023-04-03T20:20:29;101609.13;;;2.53;nan
48089;BME280;33867;50.314;7.802;2023-04-03T20:23:49;101605.75;;;2.49;nan
48089;BME280;33867;50.314;7.802;2023-04-03T20:27:15;101606.81;;;2.44;nan
48089;BME280;33867;50.314;7.802;2023-04-03T20:35:00;101608.47;;;2.02;nan
48089;BME280;33867;50.314;7.802;2023-04-03T20:38:25;101617.16;;;1.83;nan
48089;BME280;33867;50.314;7.802;2023-04-03T20:41:45;101610.72;;;1.66;nan
48089;BME280;33867;50.314;7.802;2023-04-03T20:45:06;101618.50;;;1.71;nan
48089;BME280;33867;50.314;7.802;2023-04-03T20:48:38;101609.19;;;1.83;nan
48089;BME280;33867;50.314;7.802;2023-04-03T20:56:08;101621.03;;;1.97;nan
48089;BME280;33867;50.314;7.802;2023-04-03T20:59:28;101623.88;;;1.93;nan
48089;BME280;33867;50.314;7.802;2023-04-03T21:02:48;101616.19;;;1.85;nan